Atwood, IN

9:29 AM EST on December 27, 2014 (GMT -0500)
Clunette Elevator | Change Station
CLOSE
Current Station
Personal Weather Station
Location: Leesburg, IN
Elevation: 852 ft
Nearby Weather Stations

Elev 852 ft 41.32 °N, 85.93 °W | Updated 3 minutes ago

Overcast
Overcast
44.6 °F
Feels Like 38 °F
N
14.0
Wind Variable Wind from SSW
Gusts 15.0 mph

Today
High -- | Low -- °F
--% Chance of Precip.
Yesterday
High -- | Low -- °F
Precip. -- in
8:08 AM 5:21 PM
Waxing Crescent, 37% visible
Pressure 30.06 in
Visibility 2.0 miles
Clouds Overcast 400 ft
Windchill 38 °F
Dew Point 44 °F
Humidity 98%
Rainfall 0.02 in
Snow Depth Not available.
UV 0 out of 12
Pollen .10 out of 12
Air Quality Not available.
Flu Activity Not available.
METAR KASW 271415Z AUTO 19007KT 2SM -DZ OVC004 06/06 A3006 RMK AO2

More Conditions Fewer Conditions

Pressure 30.06 in
Visibility 2.0 miles
Clouds Overcast 400 ft
Windchill 38 °F
Dew Point 44 °F
Humidity 98%
Rainfall 0.02 in
Snow Depth Not available.
UV 0 out of 12
Pollen .10 out of 12
Air Quality Not available.
Flu Activity Not available.
METAR KASW 271415Z AUTO 19007KT 2SM -DZ OVC004 06/06 A3006 RMK AO2

More Conditions Fewer Conditions

10-Day Weather Forecast

Almanac

Astronomy

Dec. 27, 2014 Rise Set
Actual Time
Civil Twilight
Nautical Twilight
Astronomical Twilight
Moon
Length of Visible Light
Length of Day
Tomorrow will be .
, % of the Moon is Illuminated

Today's Extremes

State Highs State Lows

Community

WunderPhotos

Upload Photos

1,780,916 photos uploaded!

WunderBlogs® & News

Nearby

Air Quality

  Air Quality AQ Index Pollutant
Not available.

Snow Depth

Station Depth Elevation

Earthquake Activity

City Distance Mag. Time & Date
Minimum magnitude displayed is 2.5.

Coastal Water Temperatures

Place Temperature

Nearby Weather Stations